sensor_id;sensor_type;location;lat;lon;timestamp;temperature;humidity
4518;DHT22;2271;49.464;11.070;2023-04-24T00:01:28;13.80;99.90
4518;DHT22;2271;49.464;11.070;2023-04-24T00:03:55;13.80;99.90
4518;DHT22;2271;49.464;11.070;2023-04-24T00:06:27;13.80;99.90
4518;DHT22;2271;49.464;11.070;2023-04-24T00:09:01;13.80;99.90
4518;DHT22;2271;49.464;11.070;2023-04-24T00:11:28;13.70;99.90
4518;DHT22;2271;49.464;11.070;2023-04-24T00:13:53;13.60;99.90
4518;DHT22;2271;49.464;11.070;2023-04-24T00:16:19;13.70;99.90
4518;DHT22;2271;49.464;11.070;2023-04-24T00:18:45;13.70;99.90
4518;DHT22;2271;49.464;11.070;2023-04-24T00:21:13;13.70;99.90
4518;DHT22;2271;49.464;11.070;2023-04-24T00:23:39;13.80;99.90
4518;DHT22;2271;49.464;11.070;2023-04-24T00:26:04;13.70;99.90
4518;DHT22;2271;49.464;11.070;2023-04-24T00:28:30;13.80;99.90
4518;DHT22;2271;49.464;11.070;2023-04-24T00:30:56;13.80;99.90
4518;DHT22;2271;49.464;11.070;2023-04-24T00:33:21;13.90;99.90
4518;DHT22;2271;49.464;11.070;2023-04-24T00:35:47;13.90;99.90
4518;DHT22;2271;49.464;11.070;2023-04-24T00:38:13;13.90;99.90
4518;DHT22;2271;49.464;11.070;2023-04-24T00:40:38;13.90;99.90
4518;DHT22;2271;49.464;11.070;2023-04-24T00:43:04;13.80;99.90
4518;DHT22;2271;49.464;11.070;2023-04-24T00:45:30;13.70;99.90
4518;DHT22;2271;49.464;11.070;2023-04-24T00:47:57;13.70;99.90
4518;DHT22;2271;49.464;11.070;2023-04-24T00:50:24;13.70;99.90
4518;DHT22;2271;49.464;11.070;2023-04-24T00:52:50;13.70;99.90
4518;DHT22;2271;49.464;11.070;2023-04-24T00:55:17;13.70;99.90
4518;DHT22;2271;49.464;11.070;2023-04-24T00:57:43;13.60;99.90
4518;DHT22;2271;49.464;11.070;2023-04-24T01:00:09;13.60;99.90
4518;DHT22;2271;49.464;11.070;2023-04-24T01:02:39;13.60;99.90
4518;DHT22;2271;49.464;11.070;2023-04-24T01:05:09;13.60;99.90
4518;DHT22;2271;49.464;11.070;2023-04-24T01:07:35;13.60;99.90
4518;DHT22;2271;49.464;11.070;2023-04-24T01:10:01;13.70;99.90
4518;DHT22;2271;49.464;11.070;2023-04-24T01:12:26;13.70;99.90
4518;DHT22;2271;49.464;11.070;2023-04-24T01:14:52;13.70;99.90
4518;DHT22;2271;49.464;11.070;2023-04-24T01:17:18;13.80;99.90
4518;DHT22;2271;49.464;11.070;2023-04-24T01:19:43;13.80;99.90
4518;DHT22;2271;49.464;11.070;2023-04-24T01:22:14;13.70;99.90
4518;DHT22;2271;49.464;11.070;2023-04-24T01:24:40;13.70;99.90
4518;DHT22;2271;49.464;11.070;2023-04-24T01:27:06;13.80;99.90
4518;DHT22;2271;49.464;11.070;2023-04-24T01:29:33;13.80;99.90
4518;DHT22;2271;49.464;11.070;2023-04-24T01:31:59;13.80;99.90
4518;DHT22;2271;49.464;11.070;2023-04-24T01:34:25;13.70;99.90
4518;DHT22;2271;49.464;11.070;2023-04-24T01:36:51;13.80;99.90
4518;DHT22;2271;49.464;11.070;2023-04-24T01:39:17;13.80;99.90
4518;DHT22;2271;49.464;11.070;2023-04-24T01:41:42;13.80;99.90
4518;DHT22;2271;49.464;11.070;2023-04-24T01:44:08;13.90;99.90
4518;DHT22;2271;49.464;11.070;2023-04-24T01:46:34;13.80;99.90
4518;DHT22;2271;49.464;11.070;2023-04-24T01:49:01;13.80;99.90
4518;DHT22;2271;49.464;11.070;2023-04-24T01:51:27;13.80;99.90
4518;DHT22;2271;49.464;11.070;2023-04-24T01:53:53;13.80;99.90
4518;DHT22;2271;49.464;11.070;2023-04-24T01:56:20;13.70;99.90
4518;DHT22;2271;49.464;11.070;2023-04-24T01:58:47;13.70;99.90
4518;DHT22;2271;49.464;11.070;2023-04-24T02:01:20;13.70;99.90
4518;DHT22;2271;49.464;11.070;2023-04-24T02:03:46;13.70;99.90
4518;DHT22;2271;49.464;11.070;2023-04-24T02:06:12;13.70;99.90
4518;DHT22;2271;49.464;11.070;2023-04-24T02:08:37;13.60;99.90
4518;DHT22;2271;49.464;11.070;2023-04-24T02:11:03;13.70;99.90
4518;DHT22;2271;49.464;11.070;2023-04-24T02:13:29;13.70;99.90
4518;DHT22;2271;49.464;11.070;2023-04-24T02:15:54;13.70;99.90
4518;DHT22;2271;49.464;11.070;2023-04-24T02:18:20;13.70;99.90
4518;DHT22;2271;49.464;11.070;2023-04-24T02:20:48;13.70;99.90
4518;DHT22;2271;49.464;11.070;2023-04-24T02:23:13;13.70;99.90
4518;DHT22;2271;49.464;11.070;2023-04-24T02:25:39;13.70;99.90
4518;DHT22;2271;49.464;11.070;2023-04-24T02:28:05;13.70;99.90
4518;DHT22;2271;49.464;11.070;2023-04-24T02:30:31;13.70;99.90
4518;DHT22;2271;49.464;11.070;2023-04-24T02:32:56;13.70;99.90
4518;DHT22;2271;49.464;11.070;2023-04-24T02:35:22;13.70;99.90
4518;DHT22;2271;49.464;11.070;2023-04-24T02:37:47;13.70;99.90
4518;DHT22;2271;49.464;11.070;2023-04-24T02:40:13;13.70;99.90
4518;DHT22;2271;49.464;11.070;2023-04-24T02:42:39;13.70;99.90
4518;DHT22;2271;49.464;11.070;2023-04-24T02:45:05;13.70;99.90
4518;DHT22;2271;49.464;11.070;2023-04-24T02:47:31;13.70;99.90
4518;DHT22;2271;49.464;11.070;2023-04-24T02:49:56;13.70;99.90
4518;DHT22;2271;49.464;11.070;2023-04-24T02:52:22;13.70;99.90
4518;DHT22;2271;49.464;11.070;2023-04-24T02:54:47;13.70;99.90
4518;DHT22;2271;49.464;11.070;2023-04-24T02:57:13;13.60;99.90
4518;DHT22;2271;49.464;11.070;2023-04-24T02:59:38;13.60;99.90
4518;DHT22;2271;49.464;11.070;2023-04-24T03:02:04;13.60;99.90
4518;DHT22;2271;49.464;11.070;2023-04-24T03:04:31;13.60;99.90
4518;DHT22;2271;49.464;11.070;2023-04-24T03:06:57;13.60;99.90
4518;DHT22;2271;49.464;11.070;2023-04-24T03:09:24;13.60;99.90
4518;DHT22;2271;49.464;11.070;2023-04-24T03:11:50;13.60;99.90
4518;DHT22;2271;49.464;11.070;2023-04-24T03:14:16;13.50;99.90
4518;DHT22;2271;49.464;11.070;2023-04-24T03:16:42;13.50;99.90
4518;DHT22;2271;49.464;11.070;2023-04-24T03:19:07;13.50;99.90
4518;DHT22;2271;49.464;11.070;2023-04-24T03:21:33;13.50;99.90
4518;DHT22;2271;49.464;11.070;2023-04-24T03:23:59;13.50;99.90
4518;DHT22;2271;49.464;11.070;2023-04-24T03:26:25;13.50;99.90
4518;DHT22;2271;49.464;11.070;2023-04-24T03:28:50;13.50;99.90
4518;DHT22;2271;49.464;11.070;2023-04-24T03:31:16;13.40;99.90
4518;DHT22;2271;49.464;11.070;2023-04-24T03:33:42;13.50;99.90
4518;DHT22;2271;49.464;11.070;2023-04-24T03:36:07;13.50;99.90
4518;DHT22;2271;49.464;11.070;2023-04-24T03:38:33;13.50;99.90
4518;DHT22;2271;49.464;11.070;2023-04-24T03:40:59;13.50;99.90
4518;DHT22;2271;49.464;11.070;2023-04-24T03:43:25;13.40;99.90
4518;DHT22;2271;49.464;11.070;2023-04-24T03:45:52;13.40;99.90
4518;DHT22;2271;49.464;11.070;2023-04-24T03:48:18;13.40;99.90
4518;DHT22;2271;49.464;11.070;2023-04-24T03:50:43;13.40;99.90
4518;DHT22;2271;49.464;11.070;2023-04-24T03:53:09;13.40;99.90
4518;DHT22;2271;49.464;11.070;2023-04-24T03:55:35;13.40;99.90
4518;DHT22;2271;49.464;11.070;2023-04-24T03:58:01;13.40;99.90
4518;DHT22;2271;49.464;11.070;2023-04-24T04:00:27;13.30;99.90
4518;DHT22;2271;49.464;11.070;2023-04-24T04:02:53;13.40;99.90
4518;DHT22;2271;49.464;11.070;2023-04-24T04:05:18;13.30;99.90
4518;DHT22;2271;49.464;11.070;2023-04-24T04:07:44;13.30;99.90
4518;DHT22;2271;49.464;11.070;2023-04-24T04:10:10;13.30;99.90
4518;DHT22;2271;49.464;11.070;2023-04-24T04:12:35;13.30;99.90
4518;DHT22;2271;49.464;11.070;2023-04-24T04:15:02;13.30;99.90
4518;DHT22;2271;49.464;11.070;2023-04-24T04:17:27;13.30;99.90
4518;DHT22;2271;49.464;11.070;2023-04-24T04:19:53;13.30;99.90
4518;DHT22;2271;49.464;11.070;2023-04-24T04:22:19;13.30;99.90
4518;DHT22;2271;49.464;11.070;2023-04-24T04:24:44;13.30;99.90
4518;DHT22;2271;49.464;11.070;2023-04-24T04:27:11;13.30;99.90
4518;DHT22;2271;49.464;11.070;2023-04-24T04:29:37;13.20;99.90
4518;DHT22;2271;49.464;11.070;2023-04-24T04:32:03;13.10;99.90
4518;DHT22;2271;49.464;11.070;2023-04-24T04:34:29;13.10;99.90
4518;DHT22;2271;49.464;11.070;2023-04-24T04:36:57;13.10;99.90
4518;DHT22;2271;49.464;11.070;2023-04-24T04:39:24;13.00;99.90
4518;DHT22;2271;49.464;11.070;2023-04-24T04:41:50;13.00;99.90
4518;DHT22;2271;49.464;11.070;2023-04-24T04:44:16;13.10;99.90
4518;DHT22;2271;49.464;11.070;2023-04-24T04:46:41;13.10;99.90
4518;DHT22;2271;49.464;11.070;2023-04-24T04:49:07;13.10;99.90
4518;DHT22;2271;49.464;11.070;2023-04-24T04:51:34;13.00;99.90
4518;DHT22;2271;49.464;11.070;2023-04-24T04:54:00;12.90;99.90
4518;DHT22;2271;49.464;11.070;2023-04-24T04:56:26;12.90;99.90
4518;DHT22;2271;49.464;11.070;2023-04-24T04:58:52;12.90;99.90
4518;DHT22;2271;49.464;11.070;2023-04-24T05:01:18;12.90;99.90
4518;DHT22;2271;49.464;11.070;2023-04-24T05:03:44;13.00;99.90
4518;DHT22;2271;49.464;11.070;2023-04-24T05:06:10;13.10;99.90
4518;DHT22;2271;49.464;11.070;2023-04-24T05:08:35;13.10;99.90
4518;DHT22;2271;49.464;11.070;2023-04-24T05:11:01;12.90;99.90
4518;DHT22;2271;49.464;11.070;2023-04-24T05:13:27;12.90;99.90
4518;DHT22;2271;49.464;11.070;2023-04-24T05:15:52;12.90;99.90
4518;DHT22;2271;49.464;11.070;2023-04-24T05:18:18;13.00;99.90
4518;DHT22;2271;49.464;11.070;2023-04-24T05:20:43;13.10;99.90
4518;DHT22;2271;49.464;11.070;2023-04-24T05:23:09;13.20;99.90
4518;DHT22;2271;49.464;11.070;2023-04-24T05:25:35;13.20;99.90
4518;DHT22;2271;49.464;11.070;2023-04-24T05:28:01;13.30;99.90
4518;DHT22;2271;49.464;11.070;2023-04-24T05:30:28;13.40;99.90
4518;DHT22;2271;49.464;11.070;2023-04-24T05:32:53;13.40;99.90
4518;DHT22;2271;49.464;11.070;2023-04-24T05:35:22;13.40;99.90
4518;DHT22;2271;49.464;11.070;2023-04-24T05:37:47;13.50;99.90
4518;DHT22;2271;49.464;11.070;2023-04-24T05:40:13;13.50;99.90
4518;DHT22;2271;49.464;11.070;2023-04-24T05:42:39;13.50;99.90
4518;DHT22;2271;49.464;11.070;2023-04-24T05:45:05;13.50;99.90
4518;DHT22;2271;49.464;11.070;2023-04-24T05:47:31;13.60;99.90
4518;DHT22;2271;49.464;11.070;2023-04-24T05:49:57;13.60;99.90
4518;DHT22;2271;49.464;11.070;2023-04-24T05:52:22;13.50;99.90
4518;DHT22;2271;49.464;11.070;2023-04-24T05:54:48;13.50;99.90
4518;DHT22;2271;49.464;11.070;2023-04-24T05:57:14;13.60;99.90
4518;DHT22;2271;49.464;11.070;2023-04-24T05:59:40;13.60;99.90
4518;DHT22;2271;49.464;11.070;2023-04-24T06:02:06;13.50;99.90
4518;DHT22;2271;49.464;11.070;2023-04-24T06:04:32;13.60;99.90
4518;DHT22;2271;49.464;11.070;2023-04-24T06:06:59;13.60;99.90
4518;DHT22;2271;49.464;11.070;2023-04-24T06:09:25;13.60;99.90
4518;DHT22;2271;49.464;11.070;2023-04-24T06:11:51;13.70;99.90
4518;DHT22;2271;49.464;11.070;2023-04-24T06:14:20;14.00;99.90
4518;DHT22;2271;49.464;11.070;2023-04-24T06:16:46;14.30;99.90
4518;DHT22;2271;49.464;11.070;2023-04-24T06:19:12;14.40;99.90
4518;DHT22;2271;49.464;11.070;2023-04-24T06:21:37;14.40;99.90
4518;DHT22;2271;49.464;11.070;2023-04-24T06:24:03;14.40;99.90
4518;DHT22;2271;49.464;11.070;2023-04-24T06:26:30;14.50;99.90
4518;DHT22;2271;49.464;11.070;2023-04-24T06:28:55;14.60;99.90
4518;DHT22;2271;49.464;11.070;2023-04-24T06:31:21;15.00;99.90
4518;DHT22;2271;49.464;11.070;2023-04-24T06:33:48;14.90;99.90
4518;DHT22;2271;49.464;11.070;2023-04-24T06:36:15;14.90;99.90
4518;DHT22;2271;49.464;11.070;2023-04-24T06:38:41;15.00;99.90
4518;DHT22;2271;49.464;11.070;2023-04-24T06:41:07;15.20;99.90
4518;DHT22;2271;49.464;11.070;2023-04-24T06:43:33;15.20;99.90
4518;DHT22;2271;49.464;11.070;2023-04-24T06:45:59;15.00;99.90
4518;DHT22;2271;49.464;11.070;2023-04-24T06:48:25;14.60;99.90
4518;DHT22;2271;49.464;11.070;2023-04-24T06:50:52;14.70;99.90
4518;DHT22;2271;49.464;11.070;2023-04-24T06:53:17;14.10;99.90
4518;DHT22;2271;49.464;11.070;2023-04-24T06:55:43;13.80;99.90
4518;DHT22;2271;49.464;11.070;2023-04-24T06:58:14;13.70;99.90
4518;DHT22;2271;49.464;11.070;2023-04-24T07:00:40;13.50;99.90
4518;DHT22;2271;49.464;11.070;2023-04-24T07:03:05;13.50;99.90
4518;DHT22;2271;49.464;11.070;2023-04-24T07:05:31;13.50;99.90
4518;DHT22;2271;49.464;11.070;2023-04-24T07:07:59;13.50;99.90
4518;DHT22;2271;49.464;11.070;2023-04-24T07:10:24;13.50;99.90
4518;DHT22;2271;49.464;11.070;2023-04-24T07:12:52;13.60;99.90
4518;DHT22;2271;49.464;11.070;2023-04-24T07:15:18;13.60;99.90
4518;DHT22;2271;49.464;11.070;2023-04-24T07:17:43;13.60;99.90
4518;DHT22;2271;49.464;11.070;2023-04-24T07:20:10;13.70;99.90
4518;DHT22;2271;49.464;11.070;2023-04-24T07:22:40;13.70;99.90
4518;DHT22;2271;49.464;11.070;2023-04-24T07:25:06;13.80;99.90
4518;DHT22;2271;49.464;11.070;2023-04-24T07:27:32;13.80;99.90
4518;DHT22;2271;49.464;11.070;2023-04-24T07:29:58;13.90;99.90
4518;DHT22;2271;49.464;11.070;2023-04-24T07:32:23;13.90;99.90
4518;DHT22;2271;49.464;11.070;2023-04-24T07:34:49;13.90;99.90
4518;DHT22;2271;49.464;11.070;2023-04-24T07:37:15;13.90;99.90
4518;DHT22;2271;49.464;11.070;2023-04-24T07:39:40;13.90;99.90
4518;DHT22;2271;49.464;11.070;2023-04-24T07:42:06;13.80;99.90
4518;DHT22;2271;49.464;11.070;2023-04-24T07:44:32;13.80;99.90
4518;DHT22;2271;49.464;11.070;2023-04-24T07:46:57;13.80;99.90
4518;DHT22;2271;49.464;11.070;2023-04-24T07:49:23;13.80;99.90
4518;DHT22;2271;49.464;11.070;2023-04-24T07:51:49;13.70;99.90
4518;DHT22;2271;49.464;11.070;2023-04-24T07:54:15;13.70;99.90
4518;DHT22;2271;49.464;11.070;2023-04-24T07:56:42;13.70;99.90
4518;DHT22;2271;49.464;11.070;2023-04-24T07:59:09;13.90;99.90
4518;DHT22;2271;49.464;11.070;2023-04-24T08:01:35;14.00;99.90
4518;DHT22;2271;49.464;11.070;2023-04-24T08:04:01;14.10;99.90
4518;DHT22;2271;49.464;11.070;2023-04-24T08:06:27;14.30;99.90
4518;DHT22;2271;49.464;11.070;2023-04-24T08:08:57;14.40;99.90
4518;DHT22;2271;49.464;11.070;2023-04-24T08:11:24;14.60;99.90
4518;DHT22;2271;49.464;11.070;2023-04-24T08:13:50;14.60;99.90
4518;DHT22;2271;49.464;11.070;2023-04-24T08:16:15;14.70;99.90
4518;DHT22;2271;49.464;11.070;2023-04-24T08:18:41;14.80;99.90
4518;DHT22;2271;49.464;11.070;2023-04-24T08:21:07;14.90;99.90
4518;DHT22;2271;49.464;11.070;2023-04-24T08:23:32;14.90;99.90
4518;DHT22;2271;49.464;11.070;2023-04-24T08:25:58;14.80;99.90
4518;DHT22;2271;49.464;11.070;2023-04-24T08:28:24;14.80;99.90
4518;DHT22;2271;49.464;11.070;2023-04-24T08:30:49;14.70;99.90
4518;DHT22;2271;49.464;11.070;2023-04-24T08:33:20;14.60;99.90
4518;DHT22;2271;49.464;11.070;2023-04-24T08:35:46;14.50;99.90
4518;DHT22;2271;49.464;11.070;2023-04-24T08:38:11;14.30;99.90
4518;DHT22;2271;49.464;11.070;2023-04-24T08:40:37;14.30;99.90
4518;DHT22;2271;49.464;11.070;2023-04-24T08:43:04;14.30;99.90
4518;DHT22;2271;49.464;11.070;2023-04-24T08:45:30;14.40;99.90
4518;DHT22;2271;49.464;11.070;2023-04-24T08:47:57;14.60;99.90
4518;DHT22;2271;49.464;11.070;2023-04-24T08:50:24;14.70;99.90
4518;DHT22;2271;49.464;11.070;2023-04-24T08:52:50;14.80;99.90
4518;DHT22;2271;49.464;11.070;2023-04-24T08:55:19;15.00;99.90
4518;DHT22;2271;49.464;11.070;2023-04-24T08:57:52;15.10;99.90
4518;DHT22;2271;49.464;11.070;2023-04-24T09:00:20;15.10;99.90
4518;DHT22;2271;49.464;11.070;2023-04-24T09:02:47;15.00;99.90
4518;DHT22;2271;49.464;11.070;2023-04-24T09:05:14;15.00;99.90
4518;DHT22;2271;49.464;11.070;2023-04-24T09:07:45;15.00;99.90
4518;DHT22;2271;49.464;11.070;2023-04-24T09:10:15;14.80;99.90
4518;DHT22;2271;49.464;11.070;2023-04-24T09:12:42;15.00;99.90
4518;DHT22;2271;49.464;11.070;2023-04-24T09:15:09;15.20;99.90
4518;DHT22;2271;49.464;11.070;2023-04-24T09:17:36;15.30;99.90
4518;DHT22;2271;49.464;11.070;2023-04-24T09:22:32;15.70;99.90
4518;DHT22;2271;49.464;11.070;2023-04-24T09:25:06;16.30;99.90
4518;DHT22;2271;49.464;11.070;2023-04-24T09:27:33;16.80;99.90
4518;DHT22;2271;49.464;11.070;2023-04-24T09:30:00;16.90;99.90
4518;DHT22;2271;49.464;11.070;2023-04-24T09:32:26;16.80;99.90
4518;DHT22;2271;49.464;11.070;2023-04-24T09:35:07;16.40;99.90
4518;DHT22;2271;49.464;11.070;2023-04-24T09:37:38;15.90;99.90
4518;DHT22;2271;49.464;11.070;2023-04-24T09:42:33;15.60;99.90
4518;DHT22;2271;49.464;11.070;2023-04-24T09:44:59;15.80;99.90
4518;DHT22;2271;49.464;11.070;2023-04-24T09:47:24;16.20;99.90
4518;DHT22;2271;49.464;11.070;2023-04-24T09:49:50;16.50;99.90
4518;DHT22;2271;49.464;11.070;2023-04-24T09:52:15;16.80;99.90
4518;DHT22;2271;49.464;11.070;2023-04-24T09:54:41;16.90;99.90
4518;DHT22;2271;49.464;11.070;2023-04-24T09:57:10;17.10;99.90
4518;DHT22;2271;49.464;11.070;2023-04-24T09:59:42;16.90;99.90
4518;DHT22;2271;49.464;11.070;2023-04-24T10:02:17;16.80;99.90
4518;DHT22;2271;49.464;11.070;2023-04-24T10:04:54;16.80;99.90
4518;DHT22;2271;49.464;11.070;2023-04-24T10:07:28;16.60;99.90
4518;DHT22;2271;49.464;11.070;2023-04-24T10:09:54;16.30;99.90
4518;DHT22;2271;49.464;11.070;2023-04-24T10:12:20;16.10;99.90
4518;DHT22;2271;49.464;11.070;2023-04-24T10:14:46;15.90;99.90
4518;DHT22;2271;49.464;11.070;2023-04-24T10:17:12;15.90;99.90
4518;DHT22;2271;49.464;11.070;2023-04-24T10:19:40;16.20;99.90
4518;DHT22;2271;49.464;11.070;2023-04-24T10:22:08;16.40;99.90
4518;DHT22;2271;49.464;11.070;2023-04-24T10:24:33;16.90;99.90
4518;DHT22;2271;49.464;11.070;2023-04-24T10:27:02;17.20;99.90
4518;DHT22;2271;49.464;11.070;2023-04-24T10:29:30;17.60;99.90
4518;DHT22;2271;49.464;11.070;2023-04-24T10:31:56;17.90;99.90
4518;DHT22;2271;49.464;11.070;2023-04-24T10:34:23;18.10;99.90
4518;DHT22;2271;49.464;11.070;2023-04-24T10:36:51;18.40;99.90
4518;DHT22;2271;49.464;11.070;2023-04-24T10:39:18;18.30;99.90
4518;DHT22;2271;49.464;11.070;2023-04-24T10:41:48;18.40;99.90
4518;DHT22;2271;49.464;11.070;2023-04-24T10:44:15;18.30;99.90
4518;DHT22;2271;49.464;11.070;2023-04-24T10:46:47;17.70;99.90
4518;DHT22;2271;49.464;11.070;2023-04-24T10:49:31;17.30;99.90
4518;DHT22;2271;49.464;11.070;2023-04-24T10:52:01;16.80;99.90
4518;DHT22;2271;49.464;11.070;2023-04-24T11:02:38;15.10;99.90
4518;DHT22;2271;49.464;11.070;2023-04-24T11:05:04;15.00;99.90
4518;DHT22;2271;49.464;11.070;2023-04-24T11:10:38;14.80;99.90
4518;DHT22;2271;49.464;11.070;2023-04-24T11:13:04;14.80;99.90
4518;DHT22;2271;49.464;11.070;2023-04-24T11:15:29;15.00;99.90
4518;DHT22;2271;49.464;11.070;2023-04-24T11:17:55;15.00;99.90
4518;DHT22;2271;49.464;11.070;2023-04-24T11:20:23;15.00;99.90
4518;DHT22;2271;49.464;11.070;2023-04-24T11:22:53;15.20;99.90
4518;DHT22;2271;49.464;11.070;2023-04-24T11:25:21;15.30;99.90
4518;DHT22;2271;49.464;11.070;2023-04-24T11:27:48;15.40;99.90
4518;DHT22;2271;49.464;11.070;2023-04-24T11:30:19;15.40;99.90
4518;DHT22;2271;49.464;11.070;2023-04-24T11:32:50;15.40;99.90
4518;DHT22;2271;49.464;11.070;2023-04-24T11:35:20;15.30;99.90
4518;DHT22;2271;49.464;11.070;2023-04-24T11:37:54;15.30;99.90
4518;DHT22;2271;49.464;11.070;2023-04-24T11:40:21;15.30;99.90
4518;DHT22;2271;49.464;11.070;2023-04-24T11:42:52;15.50;99.90
4518;DHT22;2271;49.464;11.070;2023-04-24T11:45:23;15.60;99.90
4518;DHT22;2271;49.464;11.070;2023-04-24T11:47:49;15.60;99.90
4518;DHT22;2271;49.464;11.070;2023-04-24T11:50:17;15.40;99.90
4518;DHT22;2271;49.464;11.070;2023-04-24T11:52:45;15.30;99.90
4518;DHT22;2271;49.464;11.070;2023-04-24T11:57:43;15.20;99.90
4518;DHT22;2271;49.464;11.070;2023-04-24T12:00:19;15.10;99.90
4518;DHT22;2271;49.464;11.070;2023-04-24T12:02:46;15.00;99.90
4518;DHT22;2271;49.464;11.070;2023-04-24T12:05:25;15.00;99.90
4518;DHT22;2271;49.464;11.070;2023-04-24T12:07:54;15.10;99.90
4518;DHT22;2271;49.464;11.070;2023-04-24T12:10:21;15.10;99.90
4518;DHT22;2271;49.464;11.070;2023-04-24T12:12:47;15.20;99.90
4518;DHT22;2271;49.464;11.070;2023-04-24T12:15:16;15.20;99.90
4518;DHT22;2271;49.464;11.070;2023-04-24T12:17:42;15.30;99.90
4518;DHT22;2271;49.464;11.070;2023-04-24T12:20:08;15.30;99.90
4518;DHT22;2271;49.464;11.070;2023-04-24T12:22:51;15.40;99.90
4518;DHT22;2271;49.464;11.070;2023-04-24T12:25:20;15.40;99.90
4518;DHT22;2271;49.464;11.070;2023-04-24T12:27:51;15.60;99.90
4518;DHT22;2271;49.464;11.070;2023-04-24T12:30:18;15.80;99.90
4518;DHT22;2271;49.464;11.070;2023-04-24T12:32:48;16.00;99.90
4518;DHT22;2271;49.464;11.070;2023-04-24T12:35:21;16.00;99.90
4518;DHT22;2271;49.464;11.070;2023-04-24T12:37:47;16.00;99.90
4518;DHT22;2271;49.464;11.070;2023-04-24T12:40:13;15.90;99.90
4518;DHT22;2271;49.464;11.070;2023-04-24T12:42:50;15.90;99.90
4518;DHT22;2271;49.464;11.070;2023-04-24T12:45:18;15.90;99.90
4518;DHT22;2271;49.464;11.070;2023-04-24T12:47:44;16.00;99.90
4518;DHT22;2271;49.464;11.070;2023-04-24T12:50:12;16.00;99.90
4518;DHT22;2271;49.464;11.070;2023-04-24T12:52:39;16.00;99.90
4518;DHT22;2271;49.464;11.070;2023-04-24T12:55:05;16.00;99.90
4518;DHT22;2271;49.464;11.070;2023-04-24T12:57:34;15.90;99.90
4518;DHT22;2271;49.464;11.070;2023-04-24T13:00:00;15.90;99.90
4518;DHT22;2271;49.464;11.070;2023-04-24T13:02:28;15.80;99.90
4518;DHT22;2271;49.464;11.070;2023-04-24T13:04:54;15.70;99.90
4518;DHT22;2271;49.464;11.070;2023-04-24T13:07:20;15.70;99.90
4518;DHT22;2271;49.464;11.070;2023-04-24T13:09:48;15.70;99.90
4518;DHT22;2271;49.464;11.070;2023-04-24T13:12:13;15.60;99.90
4518;DHT22;2271;49.464;11.070;2023-04-24T13:14:39;15.70;99.90
4518;DHT22;2271;49.464;11.070;2023-04-24T13:17:05;16.00;99.90
4518;DHT22;2271;49.464;11.070;2023-04-24T13:19:39;16.30;99.90
4518;DHT22;2271;49.464;11.070;2023-04-24T13:22:06;16.30;99.90
4518;DHT22;2271;49.464;11.070;2023-04-24T13:24:32;16.00;99.90
4518;DHT22;2271;49.464;11.070;2023-04-24T13:26:59;15.60;99.90
4518;DHT22;2271;49.464;11.070;2023-04-24T13:29:25;15.40;99.90
4518;DHT22;2271;49.464;11.070;2023-04-24T13:31:52;15.30;99.90
4518;DHT22;2271;49.464;11.070;2023-04-24T13:34:20;15.30;99.90
4518;DHT22;2271;49.464;11.070;2023-04-24T13:36:46;15.20;99.90
4518;DHT22;2271;49.464;11.070;2023-04-24T13:39:12;15.00;99.90
4518;DHT22;2271;49.464;11.070;2023-04-24T13:41:37;15.00;99.90
4518;DHT22;2271;49.464;11.070;2023-04-24T13:44:04;15.00;99.90
4518;DHT22;2271;49.464;11.070;2023-04-24T13:46:30;15.00;99.90
4518;DHT22;2271;49.464;11.070;2023-04-24T13:48:56;15.00;99.90
4518;DHT22;2271;49.464;11.070;2023-04-24T13:51:23;15.30;99.90
4518;DHT22;2271;49.464;11.070;2023-04-24T13:53:49;15.40;99.90
4518;DHT22;2271;49.464;11.070;2023-04-24T13:56:14;15.60;99.90
4518;DHT22;2271;49.464;11.070;2023-04-24T13:58:40;15.70;99.90
4518;DHT22;2271;49.464;11.070;2023-04-24T14:01:06;15.70;99.90
4518;DHT22;2271;49.464;11.070;2023-04-24T14:03:33;16.00;99.90
4518;DHT22;2271;49.464;11.070;2023-04-24T14:05:59;16.20;99.90
4518;DHT22;2271;49.464;11.070;2023-04-24T14:08:24;16.50;99.90
4518;DHT22;2271;49.464;11.070;2023-04-24T14:10:50;16.50;99.90
4518;DHT22;2271;49.464;11.070;2023-04-24T14:13:16;16.50;99.90
4518;DHT22;2271;49.464;11.070;2023-04-24T14:15:42;16.50;99.90
4518;DHT22;2271;49.464;11.070;2023-04-24T14:18:08;16.50;99.90
4518;DHT22;2271;49.464;11.070;2023-04-24T14:20:33;16.50;99.90
4518;DHT22;2271;49.464;11.070;2023-04-24T14:22:59;16.40;99.90
4518;DHT22;2271;49.464;11.070;2023-04-24T14:25:25;16.30;99.90
4518;DHT22;2271;49.464;11.070;2023-04-24T14:27:51;16.10;99.90
4518;DHT22;2271;49.464;11.070;2023-04-24T14:30:17;16.10;99.90
4518;DHT22;2271;49.464;11.070;2023-04-24T14:32:43;16.20;99.90
4518;DHT22;2271;49.464;11.070;2023-04-24T14:35:09;16.20;99.90
4518;DHT22;2271;49.464;11.070;2023-04-24T14:37:34;16.10;99.90
4518;DHT22;2271;49.464;11.070;2023-04-24T14:40:01;16.00;99.90
4518;DHT22;2271;49.464;11.070;2023-04-24T14:42:27;15.80;99.90
4518;DHT22;2271;49.464;11.070;2023-04-24T14:44:54;15.70;99.90
4518;DHT22;2271;49.464;11.070;2023-04-24T14:47:20;15.40;99.90
4518;DHT22;2271;49.464;11.070;2023-04-24T14:49:47;15.30;99.90
4518;DHT22;2271;49.464;11.070;2023-04-24T14:52:13;15.40;99.90
4518;DHT22;2271;49.464;11.070;2023-04-24T14:54:39;15.40;99.90
4518;DHT22;2271;49.464;11.070;2023-04-24T14:57:05;15.30;99.90
4518;DHT22;2271;49.464;11.070;2023-04-24T14:59:30;15.30;99.90
4518;DHT22;2271;49.464;11.070;2023-04-24T15:01:57;15.40;99.90
4518;DHT22;2271;49.464;11.070;2023-04-24T15:04:26;15.30;99.90
4518;DHT22;2271;49.464;11.070;2023-04-24T15:06:53;15.30;99.90
4518;DHT22;2271;49.464;11.070;2023-04-24T15:09:23;15.30;99.90
4518;DHT22;2271;49.464;11.070;2023-04-24T15:11:50;15.30;99.90
4518;DHT22;2271;49.464;11.070;2023-04-24T15:14:16;15.30;99.90
4518;DHT22;2271;49.464;11.070;2023-04-24T15:16:43;15.50;99.90
4518;DHT22;2271;49.464;11.070;2023-04-24T15:19:09;15.40;99.90
4518;DHT22;2271;49.464;11.070;2023-04-24T15:21:36;15.50;99.90
4518;DHT22;2271;49.464;11.070;2023-04-24T15:24:02;15.50;99.90
4518;DHT22;2271;49.464;11.070;2023-04-24T15:26:28;15.40;99.90
4518;DHT22;2271;49.464;11.070;2023-04-24T15:28:53;15.30;99.90
4518;DHT22;2271;49.464;11.070;2023-04-24T15:31:19;15.20;99.90
4518;DHT22;2271;49.464;11.070;2023-04-24T15:33:45;15.20;99.90
4518;DHT22;2271;49.464;11.070;2023-04-24T15:36:11;15.10;99.90
4518;DHT22;2271;49.464;11.070;2023-04-24T15:38:37;15.10;99.90
4518;DHT22;2271;49.464;11.070;2023-04-24T15:41:03;15.00;99.90
4518;DHT22;2271;49.464;11.070;2023-04-24T15:43:28;15.00;99.90
4518;DHT22;2271;49.464;11.070;2023-04-24T15:45:56;14.90;99.90
4518;DHT22;2271;49.464;11.070;2023-04-24T15:48:22;14.80;99.90
4518;DHT22;2271;49.464;11.070;2023-04-24T15:50:48;14.80;99.90
4518;DHT22;2271;49.464;11.070;2023-04-24T15:53:14;14.70;99.90
4518;DHT22;2271;49.464;11.070;2023-04-24T15:55:46;14.70;99.90
4518;DHT22;2271;49.464;11.070;2023-04-24T15:58:12;14.60;99.90
4518;DHT22;2271;49.464;11.070;2023-04-24T16:00:38;14.60;99.90